Time;durP1;ratioP1;P1;durP2;ratioP2;P2;SDS_P1;SDS_P2;PMS_P1;PMS_P2;Temp;Humidity;BMP_temperature;BMP_pressure;BME280_temperature;BME280_humidity;BME280_pressure;Samples;Min_cycle;Max_cycle;Signal;HPM_P1;HPM_P2
2024/04/18 00:01:50;;;;;;;;;;;19.30;47.50;;;;;;9019527;26;20358;-56
2024/04/18 00:05:54;;;;;;;;;;;19.30;47.50;;;;;;9019346;26;20270;-56
2024/04/18 00:09:54;;;;;;;;;;;19.30;47.50;;;;;;9019373;26;20017;-56
2024/04/18 00:13:55;;;;;;;;;;;19.30;47.50;;;;;;8943239;26;19956;-57
2024/04/18 00:17:55;;;;;;;;;;;19.30;47.60;;;;;;8900882;26;19929;-57
2024/04/18 00:21:59;;;;;;;;;;;19.30;47.50;;;;;;8900509;26;19973;-57
2024/04/18 00:26:00;;;;;;;;;;;19.30;47.60;;;;;;8900224;26;19937;-56
2024/04/18 00:30:00;;;;;;;;;;;19.30;47.60;;;;;;8872431;26;20048;-57
2024/04/18 00:34:01;;;;;;;;;;;19.30;47.50;;;;;;8959834;26;20035;-57
2024/04/18 00:38:01;;;;;;;;;;;19.30;47.50;;;;;;8959593;26;20240;-56
2024/04/18 00:42:02;;;;;;;;;;;19.30;47.50;;;;;;8958982;26;20371;-56
2024/04/18 00:46:03;;;;;;;;;;;19.30;47.50;;;;;;8958456;26;20295;-56
2024/04/18 00:50:07;;;;;;;;;;;19.30;47.50;;;;;;9002503;26;20347;-56
2024/04/18 00:54:08;;;;;;;;;;;19.30;48.10;;;;;;9017683;26;19935;-57
2024/04/18 00:58:10;;;;;;;;;;;19.30;47.50;;;;;;9016888;26;19936;-57
2024/04/18 01:02:11;;;;;;;;;;;19.30;47.50;;;;;;8986272;26;20022;-57
2024/04/18 01:06:15;;;;;;;;;;;19.30;47.50;;;;;;9022708;26;19932;-57
2024/04/18 01:10:15;;;;;;;;;;;19.30;47.60;;;;;;9023276;26;20417;-56
2024/04/18 01:14:16;;;;;;;;;;;19.30;47.60;;;;;;8937971;26;20706;-57
2024/04/18 01:18:16;;;;;;;;;;;19.30;47.50;;;;;;8905088;26;19929;-56
2024/04/18 01:22:17;;;;;;;;;;;19.30;47.60;;;;;;8873960;26;19934;-57
2024/04/18 01:26:18;;;;;;;;;;;19.20;47.50;;;;;;8905879;26;20000;-56
2024/04/18 01:30:19;;;;;;;;;;;19.20;47.60;;;;;;8911938;26;19929;-56
2024/04/18 01:34:19;;;;;;;;;;;19.20;47.60;;;;;;8963028;26;19987;-57
2024/04/18 01:38:20;;;;;;;;;;;19.20;47.60;;;;;;8963483;26;20431;-55
2024/04/18 01:42:20;;;;;;;;;;;19.20;47.60;;;;;;8963203;26;19936;-56
2024/04/18 01:46:21;;;;;;;;;;;19.20;47.60;;;;;;8963161;26;19936;-57
2024/04/18 01:50:21;;;;;;;;;;;19.20;47.60;;;;;;9011839;26;19929;-58
2024/04/18 01:54:22;;;;;;;;;;;19.20;47.60;;;;;;9022382;26;20001;-58
2024/04/18 01:58:23;;;;;;;;;;;19.20;47.60;;;;;;9022063;26;19957;-59
2024/04/18 02:02:23;;;;;;;;;;;19.20;47.50;;;;;;9022251;26;19929;-58
2024/04/18 02:06:28;;;;;;;;;;;19.20;47.50;;;;;;9021972;26;19928;-58
2024/04/18 02:10:28;;;;;;;;;;;19.20;47.50;;;;;;9021945;26;20373;-57
2024/04/18 02:14:29;;;;;;;;;;;19.20;47.60;;;;;;8943260;26;20279;-59
2024/04/18 02:18:30;;;;;;;;;;;19.20;47.50;;;;;;8961868;26;19935;-59
2024/04/18 02:22:30;;;;;;;;;;;19.20;47.50;;;;;;8962464;26;19929;-59
2024/04/18 02:26:33;;;;;;;;;;;19.20;47.50;;;;;;8962069;26;20306;-58
2024/04/18 02:30:34;;;;;;;;;;;19.20;47.50;;;;;;8962231;26;19940;-57
2024/04/18 02:34:34;;;;;;;;;;;19.20;47.50;;;;;;8962510;26;19940;-59
2024/04/18 02:38:35;;;;;;;;;;;19.20;47.50;;;;;;8962139;26;19972;-58
2024/04/18 02:42:35;;;;;;;;;;;19.20;47.50;;;;;;8962053;26;19936;-58
2024/04/18 02:46:36;;;;;;;;;;;19.20;47.60;;;;;;8961900;26;19929;-58
2024/04/18 02:50:36;;;;;;;;;;;19.10;47.60;;;;;;9013220;26;19997;-59
2024/04/18 02:54:37;;;;;;;;;;;19.10;47.60;;;;;;9021793;26;20261;-57
2024/04/18 02:58:38;;;;;;;;;;;19.10;47.60;;;;;;9020571;26;19964;-56
2024/04/18 03:02:38;;;;;;;;;;;19.20;47.60;;;;;;9021054;26;19929;-57
2024/04/18 03:06:44;;;;;;;;;;;19.20;47.60;;;;;;9020526;26;19928;-56
2024/04/18 03:10:48;;;;;;;;;;;19.20;47.60;;;;;;9020816;26;19929;-57
2024/04/18 03:14:49;;;;;;;;;;;19.10;47.50;;;;;;8918515;26;19972;-57
2024/04/18 03:18:50;;;;;;;;;;;19.10;47.50;;;;;;8902477;26;20502;-57
2024/04/18 03:22:50;;;;;;;;;;;19.20;47.50;;;;;;8871456;26;19936;-56
2024/04/18 03:26:51;;;;;;;;;;;19.20;47.50;;;;;;8901203;26;20355;-57
2024/04/18 03:30:52;;;;;;;;;;;19.20;47.50;;;;;;8916957;26;19937;-57
2024/04/18 03:34:52;;;;;;;;;;;19.20;47.50;;;;;;8960662;26;19936;-57
2024/04/18 03:38:53;;;;;;;;;;;19.20;47.50;;;;;;8961441;26;19929;-57
2024/04/18 03:42:54;;;;;;;;;;;19.20;47.50;;;;;;8960120;26;19939;-56
2024/04/18 03:46:54;;;;;;;;;;;19.20;47.50;;;;;;8960505;26;19935;-56
2024/04/18 03:50:55;;;;;;;;;;;19.20;47.50;;;;;;9016695;26;19936;-56
2024/04/18 03:54:55;;;;;;;;;;;19.20;47.50;;;;;;9019264;26;19962;-57
2024/04/18 03:58:56;;;;;;;;;;;19.20;47.50;;;;;;9019537;26;20270;-57
2024/04/18 04:02:57;;;;;;;;;;;19.20;47.50;;;;;;9019327;26;19929;-57
2024/04/18 04:06:58;;;;;;;;;;;19.20;47.50;;;;;;9019419;26;19952;-59
2024/04/18 04:10:59;;;;;;;;;;;19.20;47.50;;;;;;8987532;26;19932;-57
2024/04/18 04:14:59;;;;;;;;;;;19.20;47.50;;;;;;8880312;26;19940;-59
2024/04/18 04:19:00;;;;;;;;;;;19.20;47.50;;;;;;8901887;26;20279;-58
2024/04/18 04:23:00;;;;;;;;;;;19.20;47.40;;;;;;8870115;26;19942;-59
2024/04/18 04:27:01;;;;;;;;;;;19.20;47.40;;;;;;8900290;26;20174;-58
2024/04/18 04:31:02;;;;;;;;;;;19.20;47.40;;;;;;8918045;26;20081;-57
2024/04/18 04:35:02;;;;;;;;;;;19.30;47.30;;;;;;8959074;26;19936;-58
2024/04/18 04:39:03;;;;;;;;;;;19.30;47.30;;;;;;8961265;26;19936;-58
2024/04/18 04:43:03;;;;;;;;;;;19.40;47.10;;;;;;8964767;26;19933;-57
2024/04/18 04:47:04;;;;;;;;;;;19.40;47.10;;;;;;8932994;26;20280;-58
2024/04/18 04:51:05;;;;;;;;;;;19.40;47.10;;;;;;9023392;26;19932;-58
2024/04/18 04:55:05;;;;;;;;;;;19.40;47.10;;;;;;9023543;26;19935;-57
2024/04/18 04:59:06;;;;;;;;;;;19.40;47.10;;;;;;8992252;26;20494;-59
2024/04/18 05:03:06;;;;;;;;;;;19.40;47.10;;;;;;9024333;26;20005;-58
2024/04/18 05:07:10;;;;;;;;;;;19.40;47.10;;;;;;9023269;26;19929;-59
2024/04/18 05:11:10;;;;;;;;;;;19.40;47.10;;;;;;9023363;26;19978;-58
2024/04/18 05:15:11;;;;;;;;;;;19.40;47.10;;;;;;8910239;26;20383;-59
2024/04/18 05:19:12;;;;;;;;;;;19.40;47.10;;;;;;8904949;26;20379;-56
2024/04/18 05:23:12;;;;;;;;;;;19.40;47.10;;;;;;8904385;26;20367;-56
2024/04/18 05:27:13;;;;;;;;;;;19.40;47.10;;;;;;8905013;26;20368;-56
2024/04/18 05:31:13;;;;;;;;;;;19.40;47.10;;;;;;8925339;26;19929;-56
2024/04/18 05:35:14;;;;;;;;;;;19.40;47.10;;;;;;8963094;26;19957;-57
2024/04/18 05:39:14;;;;;;;;;;;19.40;47.10;;;;;;8963517;26;19991;-56
2024/04/18 05:43:15;;;;;;;;;;;19.40;47.10;;;;;;8963614;26;20371;-56
2024/04/18 05:47:16;;;;;;;;;;;19.40;47.10;;;;;;8965432;26;19937;-56
2024/04/18 05:51:16;;;;;;;;;;;19.40;47.10;;;;;;9021408;26;20362;-57
2024/04/18 05:55:17;;;;;;;;;;;19.40;47.00;;;;;;8990632;26;20370;-57
2024/04/18 05:59:18;;;;;;;;;;;19.40;47.00;;;;;;9022780;26;19928;-57
2024/04/18 06:03:19;;;;;;;;;;;19.40;47.00;;;;;;9022425;26;20431;-57
2024/04/18 06:07:21;;;;;;;;;;;19.40;47.00;;;;;;9021827;26;19932;-56
2024/04/18 06:11:42;;;;;;;;;;;19.40;47.00;;;;;;9022386;26;19933;-57
2024/04/18 06:15:43;;;;;;;;;;;19.40;47.00;;;;;;8903699;26;20360;-56
2024/04/18 06:19:47;;;;;;;;;;;19.40;47.00;;;;;;8903875;26;20296;-56
2024/04/18 06:23:48;;;;;;;;;;;19.40;47.00;;;;;;8903936;26;19937;-57
2024/04/18 06:27:48;;;;;;;;;;;19.40;47.00;;;;;;8903726;26;19930;-59
2024/04/18 06:31:49;;;;;;;;;;;19.40;47.50;;;;;;8903321;26;20353;-59
2024/04/18 06:35:49;;;;;;;;;;;19.40;47.00;;;;;;8903109;26;20359;-59
2024/04/18 06:39:50;;;;;;;;;;;19.40;47.00;;;;;;8903544;26;19933;-59
2024/04/18 06:43:51;;;;;;;;;;;19.40;47.00;;;;;;8940076;26;19935;-59
2024/04/18 06:47:51;;;;;;;;;;;19.40;47.00;;;;;;8972810;26;19940;-59
2024/04/18 06:51:52;;;;;;;;;;;19.40;47.00;;;;;;9021302;26;19935;-59
2024/04/18 06:55:52;;;;;;;;;;;19.40;47.00;;;;;;9020740;26;19928;-59
2024/04/18 06:59:53;;;;;;;;;;;19.40;47.00;;;;;;9020749;26;20243;-59
2024/04/18 07:03:54;;;;;;;;;;;19.40;47.00;;;;;;9020975;26;19943;-59
2024/04/18 07:07:57;;;;;;;;;;;19.40;47.00;;;;;;9020630;26;19944;-60
2024/04/18 07:12:00;;;;;;;;;;;19.40;47.00;;;;;;9002623;26;19930;-59
2024/04/18 07:16:02;;;;;;;;;;;19.40;47.00;;;;;;8902654;26;20472;-59
2024/04/18 07:20:03;;;;;;;;;;;19.40;47.00;;;;;;8901961;26;19936;-59
2024/04/18 07:24:04;;;;;;;;;;;19.50;47.00;;;;;;8901719;26;19961;-58
2024/04/18 07:28:04;;;;;;;;;;;19.50;47.00;;;;;;8901937;26;19929;-60
2024/04/18 07:32:07;;;;;;;;;;;19.40;46.90;;;;;;8934605;26;20458;-59
2024/04/18 07:36:07;;;;;;;;;;;19.50;46.90;;;;;;8960098;26;20368;-58
2024/04/18 07:40:12;;;;;;;;;;;19.40;46.90;;;;;;8960820;26;19940;-59
2024/04/18 07:44:12;;;;;;;;;;;19.40;46.90;;;;;;8960391;26;19929;-58
2024/04/18 07:48:13;;;;;;;;;;;19.40;46.90;;;;;;8976825;26;20398;-58
2024/04/18 07:52:14;;;;;;;;;;;19.40;46.90;;;;;;8987780;26;19956;-58
2024/04/18 07:56:15;;;;;;;;;;;19.50;47.00;;;;;;9019405;26;19939;-57
2024/04/18 08:00:16;;;;;;;;;;;19.40;46.90;;;;;;9019354;26;19960;-57
2024/04/18 08:04:16;;;;;;;;;;;19.40;46.90;;;;;;9019379;26;19940;-58
2024/04/18 08:08:20;;;;;;;;;;;19.40;46.90;;;;;;9018901;26;19932;-58
2024/04/18 08:12:21;;;;;;;;;;;19.40;47.00;;;;;;8989919;26;19937;-58
2024/04/18 08:16:21;;;;;;;;;;;19.40;47.00;;;;;;8875202;26;19962;-59
2024/04/18 08:20:22;;;;;;;;;;;19.40;46.90;;;;;;8906476;26;19940;-59
2024/04/18 08:24:27;;;;;;;;;;;19.40;46.90;;;;;;8906614;26;20274;-59
2024/04/18 08:28:27;;;;;;;;;;;19.40;46.90;;;;;;8906111;26;19930;-58
2024/04/18 08:32:29;;;;;;;;;;;19.50;46.90;;;;;;8884944;26;20317;-59
2024/04/18 08:36:29;;;;;;;;;;;19.40;46.90;;;;;;8906071;26;19934;-58
2024/04/18 08:40:30;;;;;;;;;;;19.50;46.90;;;;;;8906043;26;19934;-58
2024/04/18 08:44:31;;;;;;;;;;;19.50;46.90;;;;;;8921033;26;19940;-58
2024/04/18 08:48:34;;;;;;;;;;;19.50;46.90;;;;;;8985957;26;20311;-59
2024/04/18 08:52:35;;;;;;;;;;;19.50;46.90;;;;;;9024041;26;19992;-59
2024/04/18 08:56:37;;;;;;;;;;;19.50;46.90;;;;;;9023408;26;19936;-59
2024/04/18 09:00:40;;;;;;;;;;;19.50;46.90;;;;;;9023912;26;20355;-59
2024/04/18 09:04:40;;;;;;;;;;;19.40;46.90;;;;;;9023794;26;19940;-59
2024/04/18 09:08:48;;;;;;;;;;;19.50;46.90;;;;;;9024035;26;19935;-58
2024/04/18 09:12:51;;;;;;;;;;;19.40;46.90;;;;;;8980605;26;19930;-58
2024/04/18 09:16:51;;;;;;;;;;;19.40;46.90;;;;;;8874547;26;19933;-59
2024/04/18 09:20:52;;;;;;;;;;;19.40;46.90;;;;;;8904793;26;19934;-59
2024/04/18 09:24:53;;;;;;;;;;;19.40;46.90;;;;;;8905013;26;19929;-60
2024/04/18 09:28:54;;;;;;;;;;;19.50;46.90;;;;;;8874634;26;19929;-59
2024/04/18 09:32:55;;;;;;;;;;;19.40;46.90;;;;;;8949741;26;19936;-59
2024/04/18 09:36:57;;;;;;;;;;;19.40;46.90;;;;;;8964296;26;19929;-59
2024/04/18 09:41:01;;;;;;;;;;;19.40;46.90;;;;;;8933026;26;19935;-59
2024/04/18 09:45:03;;;;;;;;;;;19.40;46.90;;;;;;8962720;26;19958;-59
2024/04/18 09:49:04;;;;;;;;;;;19.50;46.90;;;;;;8993128;26;20394;-58
2024/04/18 09:53:06;;;;;;;;;;;19.40;46.80;;;;;;8991242;26;20258;-59
2024/04/18 09:57:06;;;;;;;;;;;19.50;46.90;;;;;;9022430;26;19928;-59
2024/04/18 10:01:08;;;;;;;;;;;19.40;46.80;;;;;;9022606;26;19929;-58
2024/04/18 10:05:09;;;;;;;;;;;19.40;46.80;;;;;;9022033;26;20297;-59
2024/04/18 10:09:12;;;;;;;;;;;19.40;46.90;;;;;;8991148;26;19943;-59
2024/04/18 10:13:12;;;;;;;;;;;19.40;46.90;;;;;;8967622;26;19936;-59
2024/04/18 10:17:32;;;;;;;;;;;19.50;46.90;;;;;;8903763;26;19936;-59
2024/04/18 10:21:34;;;;;;;;;;;19.50;46.90;;;;;;8903897;26;20341;-59
2024/04/18 10:25:38;;;;;;;;;;;19.50;46.90;;;;;;8904077;26;19929;-59
2024/04/18 10:29:38;;;;;;;;;;;19.50;46.90;;;;;;8903710;26;19972;-58
2024/04/18 10:33:39;;;;;;;;;;;19.40;46.80;;;;;;8959739;26;19932;-59
2024/04/18 10:37:48;;;;;;;;;;;19.40;46.90;;;;;;8931036;26;19929;-59
2024/04/18 10:41:49;;;;;;;;;;;19.50;46.90;;;;;;8962467;26;19929;-58
2024/04/18 10:45:50;;;;;;;;;;;19.40;46.80;;;;;;8963203;26;19929;-59
2024/04/18 10:49:50;;;;;;;;;;;19.50;46.80;;;;;;9003308;26;19935;-59
2024/04/18 10:53:53;;;;;;;;;;;19.50;46.80;;;;;;9020477;26;20458;-59
2024/04/18 10:57:53;;;;;;;;;;;19.40;46.80;;;;;;9020975;26;20002;-59
2024/04/18 11:02:04;;;;;;;;;;;19.40;46.90;;;;;;9021313;26;19936;-59
2024/04/18 11:06:04;;;;;;;;;;;19.40;47.40;;;;;;9021061;26;20536;-58
2024/04/18 11:10:06;;;;;;;;;;;19.40;47.50;;;;;;9021130;26;19929;-57
2024/04/18 11:14:07;;;;;;;;;;;19.40;47.00;;;;;;8939062;26;19985;-58
2024/04/18 11:18:08;;;;;;;;;;;19.40;46.90;;;;;;8902549;26;20003;-58
2024/04/18 11:22:08;;;;;;;;;;;19.40;47.00;;;;;;8902174;26;20275;-57
2024/04/18 11:26:09;;;;;;;;;;;19.40;46.90;;;;;;8902004;26;19972;-59
2024/04/18 11:30:14;;;;;;;;;;;19.40;46.90;;;;;;8877080;26;19928;-58
2024/04/18 11:34:14;;;;;;;;;;;19.40;46.90;;;;;;8929207;26;19929;-58
2024/04/18 11:38:16;;;;;;;;;;;19.40;46.90;;;;;;8960534;26;19929;-56
2024/04/18 11:42:16;;;;;;;;;;;19.40;47.00;;;;;;8947657;26;19930;-56
2024/04/18 11:46:17;;;;;;;;;;;19.40;47.00;;;;;;8870990;26;19937;-58
2024/04/18 11:50:17;;;;;;;;;;;19.40;47.00;;;;;;8994700;26;19936;-58
2024/04/18 11:54:18;;;;;;;;;;;19.40;46.90;;;;;;9020029;26;19939;-58
2024/04/18 11:58:18;;;;;;;;;;;19.40;46.90;;;;;;9020074;26;19935;-58
2024/04/18 12:02:19;;;;;;;;;;;19.40;46.90;;;;;;9019221;26;20388;-58
2024/04/18 12:06:20;;;;;;;;;;;19.40;46.90;;;;;;9019317;26;19936;-58
2024/04/18 12:10:20;;;;;;;;;;;19.40;46.90;;;;;;8987849;26;20377;-58
2024/04/18 12:14:21;;;;;;;;;;;19.40;46.90;;;;;;8899867;26;19981;-57
2024/04/18 12:18:22;;;;;;;;;;;19.40;47.00;;;;;;8900977;26;19999;-59
2024/04/18 12:22:22;;;;;;;;;;;19.40;47.00;;;;;;8901058;26;19937;-59
2024/04/18 12:26:23;;;;;;;;;;;19.40;46.90;;;;;;8870000;26;19929;-59
2024/04/18 12:30:24;;;;;;;;;;;19.40;46.90;;;;;;8909172;26;19988;-59
2024/04/18 12:34:24;;;;;;;;;;;19.40;46.80;;;;;;8959613;26;19998;-58
2024/04/18 12:38:25;;;;;;;;;;;19.40;46.80;;;;;;8959711;26;19929;-59
2024/04/18 12:42:25;;;;;;;;;;;19.40;46.80;;;;;;8958796;26;20499;-59
2024/04/18 12:46:26;;;;;;;;;;;19.40;46.90;;;;;;8927723;26;19928;-59
2024/04/18 12:50:27;;;;;;;;;;;19.40;46.90;;;;;;8976885;26;19929;-59
2024/04/18 12:54:27;;;;;;;;;;;19.40;46.90;;;;;;9017975;26;19929;-59
2024/04/18 12:58:28;;;;;;;;;;;19.40;47.00;;;;;;8985760;26;19934;-59
2024/04/18 13:02:29;;;;;;;;;;;19.40;47.00;;;;;;8991726;26;19947;-59
2024/04/18 13:06:29;;;;;;;;;;;19.40;47.00;;;;;;9024020;26;19936;-59
2024/04/18 13:10:30;;;;;;;;;;;19.40;47.00;;;;;;9024016;26;20323;-59
2024/04/18 13:14:31;;;;;;;;;;;19.30;47.00;;;;;;8930365;26;20003;-59
2024/04/18 13:18:31;;;;;;;;;;;19.40;47.00;;;;;;8905330;26;19930;-59
2024/04/18 13:22:32;;;;;;;;;;;19.40;47.00;;;;;;8905219;26;19937;-58
2024/04/18 13:26:32;;;;;;;;;;;19.40;47.00;;;;;;8904816;26;19999;-59
2024/04/18 13:30:33;;;;;;;;;;;19.40;47.00;;;;;;8915907;26;19929;-58
2024/04/18 13:34:34;;;;;;;;;;;19.40;47.00;;;;;;8963368;26;19929;-59
2024/04/18 13:38:34;;;;;;;;;;;19.40;46.90;;;;;;8963095;26;20398;-58
2024/04/18 13:42:35;;;;;;;;;;;19.40;46.90;;;;;;8903143;26;19929;-59
2024/04/18 13:46:35;;;;;;;;;;;19.40;46.90;;;;;;8963997;26;19969;-58
2024/04/18 13:50:36;;;;;;;;;;;19.40;46.80;;;;;;8963091;26;20752;-58
2024/04/18 13:54:36;;;;;;;;;;;19.40;46.80;;;;;;8963359;26;19960;-58
2024/04/18 13:58:37;;;;;;;;;;;19.40;46.90;;;;;;9019440;26;20216;-58
2024/04/18 14:02:38;;;;;;;;;;;19.40;46.80;;;;;;9022209;26;19953;-59
2024/04/18 14:06:38;;;;;;;;;;;19.40;46.90;;;;;;9022436;26;19996;-58
2024/04/18 14:10:39;;;;;;;;;;;19.40;46.90;;;;;;9021585;26;19932;-59
2024/04/18 14:14:39;;;;;;;;;;;19.40;46.90;;;;;;8924098;26;19936;-57
2024/04/18 14:18:49;;;;;;;;;;;19.40;46.90;;;;;;8904076;26;19947;-59
2024/04/18 14:22:50;;;;;;;;;;;19.40;46.90;;;;;;8903170;26;19930;-57
2024/04/18 14:26:50;;;;;;;;;;;19.40;46.90;;;;;;8903817;26;19936;-58
2024/04/18 14:30:51;;;;;;;;;;;19.40;46.90;;;;;;8918257;26;19929;-59
2024/04/18 14:34:51;;;;;;;;;;;19.40;46.90;;;;;;8961830;26;20370;-57
2024/04/18 14:38:52;;;;;;;;;;;19.40;46.90;;;;;;8962620;26;19929;-58
2024/04/18 14:42:54;;;;;;;;;;;19.40;46.90;;;;;;8962002;26;20277;-58
2024/04/18 14:46:54;;;;;;;;;;;19.40;46.90;;;;;;8962069;26;19938;-59
2024/04/18 14:50:55;;;;;;;;;;;19.40;46.90;;;;;;9018159;26;19933;-58
2024/04/18 14:54:55;;;;;;;;;;;19.40;46.90;;;;;;9020764;26;19955;-59
2024/04/18 14:58:56;;;;;;;;;;;19.40;46.90;;;;;;9021495;26;19935;-57
2024/04/18 15:02:57;;;;;;;;;;;19.30;46.90;;;;;;9020917;26;20456;-59
2024/04/18 15:06:58;;;;;;;;;;;19.30;46.90;;;;;;9021051;26;19997;-58
2024/04/18 15:10:59;;;;;;;;;;;19.40;47.00;;;;;;8989525;26;20678;-58
2024/04/18 15:14:59;;;;;;;;;;;19.30;46.90;;;;;;8934773;26;19937;-58
2024/04/18 15:19:00;;;;;;;;;;;19.40;47.00;;;;;;8962032;26;19938;-59
2024/04/18 15:23:00;;;;;;;;;;;19.40;47.00;;;;;;8960766;26;19929;-58
2024/04/18 15:27:02;;;;;;;;;;;19.30;46.90;;;;;;8961212;26;19929;-58
2024/04/18 15:31:03;;;;;;;;;;;19.30;47.00;;;;;;8961273;26;19998;-59
2024/04/18 15:35:04;;;;;;;;;;;19.30;46.90;;;;;;8960999;26;19937;-58
2024/04/18 15:39:04;;;;;;;;;;;19.30;47.00;;;;;;8961523;26;19929;-58
2024/04/18 15:43:05;;;;;;;;;;;19.40;47.00;;;;;;8960670;26;19929;-58
2024/04/18 15:47:05;;;;;;;;;;;19.40;47.00;;;;;;8960437;26;19929;-58
2024/04/18 15:51:06;;;;;;;;;;;19.30;46.90;;;;;;9020239;26;20434;-59
2024/04/18 15:55:06;;;;;;;;;;;19.30;46.90;;;;;;9020355;26;19961;-59
2024/04/18 15:59:07;;;;;;;;;;;19.30;46.90;;;;;;9019759;26;20005;-59
2024/04/18 16:03:08;;;;;;;;;;;19.30;46.90;;;;;;9019512;26;19928;-59
2024/04/18 16:07:08;;;;;;;;;;;19.30;46.90;;;;;;8987671;26;20274;-58
2024/04/18 16:11:09;;;;;;;;;;;19.30;46.90;;;;;;8987488;26;19929;-58
2024/04/18 16:15:10;;;;;;;;;;;19.30;46.90;;;;;;8876954;26;19936;-59
2024/04/18 16:19:10;;;;;;;;;;;19.40;47.00;;;;;;8870063;26;19936;-59
2024/04/18 16:23:11;;;;;;;;;;;19.30;46.90;;;;;;8900716;26;19999;-59
2024/04/18 16:27:11;;;;;;;;;;;19.30;46.90;;;;;;8870458;26;19937;-59
2024/04/18 16:31:12;;;;;;;;;;;19.40;47.00;;;;;;8900343;26;20291;-59
2024/04/18 16:35:13;;;;;;;;;;;19.30;46.90;;;;;;8902262;26;19930;-59
2024/04/18 16:39:13;;;;;;;;;;;19.30;46.90;;;;;;8906641;26;20267;-59
2024/04/18 16:43:14;;;;;;;;;;;19.30;46.90;;;;;;8933848;26;19929;-59
2024/04/18 16:47:15;;;;;;;;;;;19.30;47.00;;;;;;8967164;26;19963;-59
2024/04/18 16:51:15;;;;;;;;;;;19.30;47.00;;;;;;9023711;26;20258;-57
2024/04/18 16:55:16;;;;;;;;;;;19.30;47.00;;;;;;9023631;26;19952;-58
2024/04/18 16:59:17;;;;;;;;;;;19.30;47.00;;;;;;9024209;26;19939;-57
2024/04/18 17:03:18;;;;;;;;;;;19.30;47.00;;;;;;9024053;26;20056;-57
2024/04/18 17:07:18;;;;;;;;;;;19.30;47.00;;;;;;9023448;26;19937;-56
2024/04/18 17:11:19;;;;;;;;;;;19.30;47.00;;;;;;9023625;26;20373;-56
2024/04/18 17:15:20;;;;;;;;;;;19.30;47.00;;;;;;8905741;26;19942;-58
2024/04/18 17:19:20;;;;;;;;;;;19.30;46.90;;;;;;8905683;26;19930;-58
2024/04/18 17:23:21;;;;;;;;;;;19.30;46.90;;;;;;8905226;26;19963;-59
2024/04/18 17:27:21;;;;;;;;;;;19.30;46.90;;;;;;8874285;26;19936;-58
2024/04/18 17:31:22;;;;;;;;;;;19.30;46.90;;;;;;8927358;26;19936;-58
2024/04/18 17:35:23;;;;;;;;;;;19.30;46.90;;;;;;8963537;26;20067;-58
2024/04/18 17:39:23;;;;;;;;;;;19.30;46.90;;;;;;8932532;26;19933;-58
2024/04/18 17:43:24;;;;;;;;;;;19.30;46.90;;;;;;8963320;26;19932;-58
2024/04/18 17:47:24;;;;;;;;;;;19.30;46.90;;;;;;8966288;26;19940;-57
2024/04/18 17:51:25;;;;;;;;;;;19.30;46.90;;;;;;9022979;26;19956;-59
2024/04/18 17:55:25;;;;;;;;;;;19.30;46.90;;;;;;8990366;26;20602;-58
2024/04/18 17:59:27;;;;;;;;;;;19.30;46.90;;;;;;9022845;26;19928;-58
2024/04/18 18:03:28;;;;;;;;;;;19.30;46.90;;;;;;9022782;26;19996;-57
2024/04/18 18:07:28;;;;;;;;;;;19.30;46.90;;;;;;9022668;26;20346;-57
2024/04/18 18:11:29;;;;;;;;;;;19.30;47.00;;;;;;9019030;26;20262;-59
2024/04/18 18:15:30;;;;;;;;;;;19.30;47.00;;;;;;8873358;26;19937;-59
2024/04/18 18:19:30;;;;;;;;;;;19.20;47.00;;;;;;8873155;26;19936;-59
2024/04/18 18:23:31;;;;;;;;;;;19.30;47.00;;;;;;8903938;26;20114;-59
2024/04/18 18:27:31;;;;;;;;;;;19.30;47.00;;;;;;8873035;26;20389;-59
2024/04/18 18:31:32;;;;;;;;;;;19.30;47.00;;;;;;8928967;26;19937;-59
2024/04/18 18:35:33;;;;;;;;;;;19.30;46.90;;;;;;8962062;26;19937;-59
2024/04/18 18:39:34;;;;;;;;;;;19.30;46.90;;;;;;8962461;26;19940;-59
2024/04/18 18:43:34;;;;;;;;;;;19.30;46.90;;;;;;8962394;26;20692;-59
2024/04/18 18:47:36;;;;;;;;;;;19.30;46.90;;;;;;8969474;26;19937;-59
2024/04/18 18:51:36;;;;;;;;;;;19.30;46.90;;;;;;9021342;26;19928;-59
2024/04/18 18:55:37;;;;;;;;;;;19.30;46.80;;;;;;9021273;26;19953;-59
2024/04/18 18:59:41;;;;;;;;;;;19.30;46.90;;;;;;9020880;26;19942;-58
2024/04/18 19:03:42;;;;;;;;;;;19.30;46.90;;;;;;9021217;26;19932;-59
2024/04/18 19:07:42;;;;;;;;;;;19.30;46.90;;;;;;9020916;26;19935;-59
2024/04/18 19:11:44;;;;;;;;;;;19.30;46.90;;;;;;9010217;26;20032;-59
2024/04/18 19:15:53;;;;;;;;;;;19.30;46.90;;;;;;8902642;26;20390;-59
2024/04/18 19:19:54;;;;;;;;;;;19.30;46.90;;;;;;8890167;26;20274;-58
2024/04/18 19:23:54;;;;;;;;;;;19.30;47.00;;;;;;8902682;26;20360;-58
2024/04/18 19:27:55;;;;;;;;;;;19.30;46.90;;;;;;8902220;26;20263;-57
2024/04/18 19:31:55;;;;;;;;;;;19.30;46.90;;;;;;8933052;26;19929;-59
2024/04/18 19:35:56;;;;;;;;;;;19.30;47.00;;;;;;8961332;26;19937;-59
2024/04/18 19:39:57;;;;;;;;;;;19.30;46.90;;;;;;8961537;26;19936;-57
2024/04/18 19:43:57;;;;;;;;;;;19.30;46.90;;;;;;8960621;26;20391;-58
2024/04/18 19:47:58;;;;;;;;;;;19.30;46.90;;;;;;8963609;26;19972;-58
2024/04/18 19:51:58;;;;;;;;;;;19.30;46.90;;;;;;9019492;26;19936;-56
2024/04/18 19:55:59;;;;;;;;;;;19.30;46.80;;;;;;9019464;26;19983;-58
2024/04/18 19:59:59;;;;;;;;;;;19.30;46.80;;;;;;9019628;26;19929;-58
2024/04/18 20:04:00;;;;;;;;;;;19.30;46.80;;;;;;9019426;26;19928;-59
2024/04/18 20:08:01;;;;;;;;;;;19.40;46.80;;;;;;8987909;26;19929;-58
2024/04/18 20:12:02;;;;;;;;;;;19.30;46.80;;;;;;9013711;26;19966;-58
2024/04/18 20:16:03;;;;;;;;;;;19.30;46.80;;;;;;8934219;26;19928;-58
2024/04/18 20:20:04;;;;;;;;;;;19.30;46.90;;;;;;8965468;26;19936;-58
2024/04/18 20:24:05;;;;;;;;;;;19.30;46.90;;;;;;8965042;26;20355;-57
2024/04/18 20:28:05;;;;;;;;;;;19.30;46.80;;;;;;8965682;26;19998;-58
2024/04/18 20:32:06;;;;;;;;;;;19.40;46.90;;;;;;8964866;26;20339;-57
2024/04/18 20:36:07;;;;;;;;;;;19.30;46.80;;;;;;8964760;26;19929;-57
2024/04/18 20:40:08;;;;;;;;;;;19.30;46.80;;;;;;8965225;26;19940;-58
2024/04/18 20:44:09;;;;;;;;;;;19.30;46.90;;;;;;8893054;26;19929;-57
2024/04/18 20:48:10;;;;;;;;;;;19.30;46.90;;;;;;8937501;26;20341;-58
2024/04/18 20:52:10;;;;;;;;;;;19.30;46.90;;;;;;9024421;26;20194;-57
2024/04/18 20:56:11;;;;;;;;;;;19.30;46.90;;;;;;9023658;26;20363;-58
2024/04/18 21:00:12;;;;;;;;;;;19.30;46.90;;;;;;9023565;26;19939;-57
2024/04/18 21:04:12;;;;;;;;;;;19.30;46.90;;;;;;9023895;26;20343;-58
2024/04/18 21:08:13;;;;;;;;;;;19.30;46.90;;;;;;9025068;26;20471;-58
2024/04/18 21:12:14;;;;;;;;;;;19.30;46.80;;;;;;8997756;26;20378;-58
2024/04/18 21:16:14;;;;;;;;;;;19.30;46.80;;;;;;8905382;26;19937;-57
2024/04/18 21:20:15;;;;;;;;;;;19.30;46.80;;;;;;8904951;26;19929;-57
2024/04/18 21:24:16;;;;;;;;;;;19.30;46.90;;;;;;8906092;26;19930;-57
2024/04/18 21:28:16;;;;;;;;;;;19.30;46.90;;;;;;8904862;26;20453;-58
2024/04/18 21:32:17;;;;;;;;;;;19.30;46.90;;;;;;8940513;26;19936;-57
2024/04/18 21:36:17;;;;;;;;;;;19.30;46.90;;;;;;8964264;26;19929;-58
2024/04/18 21:40:18;;;;;;;;;;;19.30;46.90;;;;;;8963995;26;19939;-57
2024/04/18 21:44:18;;;;;;;;;;;19.30;47.00;;;;;;8963408;26;20018;-58
2024/04/18 21:48:20;;;;;;;;;;;19.30;47.00;;;;;;8981447;26;19939;-59
2024/04/18 21:52:21;;;;;;;;;;;19.20;47.00;;;;;;8991002;26;19943;-57
2024/04/18 21:56:22;;;;;;;;;;;19.30;47.10;;;;;;9022804;26;19935;-57
2024/04/18 22:00:22;;;;;;;;;;;19.20;47.00;;;;;;9018592;26;19946;-58
2024/04/18 22:04:23;;;;;;;;;;;19.20;47.00;;;;;;8963036;26;20641;-57
2024/04/18 22:08:23;;;;;;;;;;;19.20;47.00;;;;;;8963303;26;20687;-58
2024/04/18 22:12:24;;;;;;;;;;;19.20;47.00;;;;;;8956942;26;19998;-58
2024/04/18 22:16:25;;;;;;;;;;;19.20;47.10;;;;;;8962451;26;20265;-58
2024/04/18 22:20:26;;;;;;;;;;;19.20;47.10;;;;;;8963019;26;20631;-58
2024/04/18 22:24:26;;;;;;;;;;;19.20;47.00;;;;;;8963040;26;19929;-57
2024/04/18 22:28:27;;;;;;;;;;;19.20;47.00;;;;;;8962541;26;19936;-57
2024/04/18 22:32:27;;;;;;;;;;;19.20;47.00;;;;;;8930218;26;19936;-57
2024/04/18 22:36:28;;;;;;;;;;;19.20;47.00;;;;;;8962392;26;20274;-59
2024/04/18 22:40:28;;;;;;;;;;;19.20;47.00;;;;;;8962312;26;19929;-58
2024/04/18 22:44:29;;;;;;;;;;;19.20;47.00;;;;;;8962549;26;19933;-57
2024/04/18 22:48:30;;;;;;;;;;;19.20;47.10;;;;;;8972723;26;19977;-58
2024/04/18 22:52:30;;;;;;;;;;;19.20;47.10;;;;;;9021515;26;20354;-58
2024/04/18 22:56:31;;;;;;;;;;;19.20;47.10;;;;;;9021572;26;19928;-59
2024/04/18 23:00:34;;;;;;;;;;;19.10;47.00;;;;;;9020972;26;19961;-57
2024/04/18 23:04:34;;;;;;;;;;;19.10;47.10;;;;;;9021411;26;20287;-57
2024/04/18 23:08:35;;;;;;;;;;;19.10;47.10;;;;;;9021380;26;19928;-59
2024/04/18 23:12:36;;;;;;;;;;;19.10;47.10;;;;;;8984398;26;20004;-59
2024/04/18 23:16:36;;;;;;;;;;;19.10;47.10;;;;;;8902824;26;19937;-59
2024/04/18 23:20:37;;;;;;;;;;;19.10;47.10;;;;;;8903116;26;20398;-58